West Newton, Indiana
Current Conditions -  °F | °C
As of 12:54 AM on Saturday 29 Nov 2014 (Local Time) from KIND Reporting Station
Scattered Clouds Scattered Clouds  
Wind Chill: 23°   Ceiling: Unl
Heat Index: 31°   Visibility: 10mi
Dew Point: 22°   Wind: 9mph
Humidity: 69%   Direction: 150°SSE
Pressure: 29.98"   Gusts: NA
Location:  39.65°N, 86.28°W
Report Text: KIND 290554Z 15008KT 10SM SCT170 M01/M06 A2998 RMK AO2 SLP159 T10061056 10006 21011 56021
Loading
Personal Weather Stations






























Interactive Weather Map New forecast layout! Learn more

10-Day Weather Forecast

Advertisements
Track Severe Weather on mobile